Rhinelander Oneida County Airport
KRHI : now visible

Airfield :











YOU CAN JOIN US ON...

 
LOGIN :

Register | Disclaimer

   EN    FR    IT 

 









Legend :    VFR   Marginal VFR   IFR   Intensive IFR   Very Intensive IFR
Visi :
Ceiling :
>= 8 km
>= 3000ft
5 to 8 km
1000 to 3000 ft
1500m to 5 km
500 to 1000 ft
800 to 1500m
200 to 500 ft
< 800m
< 200 ft
Symbols :   Thunderstorms  Fog  Heavy snow  Heavy precipitations  Wind > 20 kt







- Airport Elevation : 1624 ft
- IATA code : RHI


KRHI - Rhinelander Oneida County

CURRENT METAR :
  • 181153Z AUTO 21008KT 2 1/2SM BR OVC004 17/16 A3008 RMK AO2 SLP182 T01720161 10183 20172 53005

EXPIRED METARs :
  • 181146Z AUTO 20007G17KT 2 1/2SM BR OVC004 17/16 A3007 RMK AO2 T01720161
  • 181053Z AUTO 18008G18KT 3SM BR OVC004 17/16 A3005 RMK AO2 SLP172 T01720161
  • 181018Z AUTO 20010G19KT 9SM OVC009 18/16 A3006 RMK AO2 T01780156
  • 180953Z AUTO 20010G16KT 9SM OVC010 18/16 A3005 RMK AO2 CIG 008V014 SLP171 T01780156

TAF KRHI
Valid from the 18 at 12:00 until the 19 at 12:00 UTC


181132Z 1812/1912 18011KT 6SM BR SCT004 BKN008 WS019/21035KT
TEMPO 1812/1814 3SM BR BKN004
FM181800 18011G21KT P6SM SCT018 BKN035
FM190300 19009KT P6SM -SHRA OVC030 WS020/22035KT
FM190700 21007KT 5SM -SHRA BR OVC014
FM191000 21004KT 4SM -SHRA BR BKN007
No reported NOTAMs for that airfield.



MET'MAP, your aeronautical weather chart ! - Copyright ORBIFLY December 2007 - Disclaimer

ORBIFLY MET'MAP TEAM :

Programming & Development : Alexandra Zaïnal
Concept & Development : Baudouin d'Aumeries
Co-Development & Prog : Marc-Olivier Méhu
Technical & hardware support : Manuel Goepfert

Contact : metmap@orbifly.com




SOURCES & CREDITS :

   NOAA       Earth
Advisory